sensor_id;sensor_type;location;lat;lon;timestamp;pressure;altitude;pressure_sealevel;temperature;humidity
48424;BME280;34232;42.502;26.014;2023-01-01T00:01:15;101645.56;;;2.45;86.31
48424;BME280;34232;42.502;26.014;2023-01-01T00:03:41;101658.47;;;2.50;86.29
48424;BME280;34232;42.502;26.014;2023-01-01T00:06:08;101652.44;;;2.48;86.86
48424;BME280;34232;42.502;26.014;2023-01-01T00:08:34;101660.25;;;2.48;86.33
48424;BME280;34232;42.502;26.014;2023-01-01T00:11:04;101660.31;;;2.45;86.35
48424;BME280;34232;42.502;26.014;2023-01-01T00:13:31;101663.00;;;2.42;86.55
48424;BME280;34232;42.502;26.014;2023-01-01T00:16:12;101665.72;;;2.36;86.85
48424;BME280;34232;42.502;26.014;2023-01-01T00:18:38;101660.59;;;2.33;87.02
48424;BME280;34232;42.502;26.014;2023-01-01T00:21:06;101658.94;;;2.29;87.60
48424;BME280;34232;42.502;26.014;2023-01-01T00:23:33;101666.75;;;2.29;88.01
48424;BME280;34232;42.502;26.014;2023-01-01T00:25:59;101670.19;;;2.29;87.72
48424;BME280;34232;42.502;26.014;2023-01-01T00:28:25;101664.41;;;2.17;88.32
48424;BME280;34232;42.502;26.014;2023-01-01T00:30:51;101663.72;;;2.10;89.96
48424;BME280;34232;42.502;26.014;2023-01-01T00:33:16;101667.84;;;2.19;89.59
48424;BME280;34232;42.502;26.014;2023-01-01T00:35:41;101661.66;;;2.24;89.25
48424;BME280;34232;42.502;26.014;2023-01-01T00:38:07;101661.63;;;2.26;89.15
48424;BME280;34232;42.502;26.014;2023-01-01T00:40:32;101663.28;;;2.28;89.82
48424;BME280;34232;42.502;26.014;2023-01-01T00:42:58;101674.34;;;2.38;89.71
48424;BME280;34232;42.502;26.014;2023-01-01T00:45:23;101670.78;;;2.42;89.55
48424;BME280;34232;42.502;26.014;2023-01-01T00:47:52;101673.75;;;2.27;90.02
48424;BME280;34232;42.502;26.014;2023-01-01T00:50:21;101665.47;;;2.09;90.84
48424;BME280;34232;42.502;26.014;2023-01-01T00:52:47;101649.00;;;2.10;91.13
48424;BME280;34232;42.502;26.014;2023-01-01T00:55:13;101648.91;;;2.14;90.54
48424;BME280;34232;42.502;26.014;2023-01-01T00:57:39;101671.03;;;2.30;90.80
48424;BME280;34232;42.502;26.014;2023-01-01T01:00:05;101664.97;;;2.31;89.74
48424;BME280;34232;42.502;26.014;2023-01-01T01:02:31;101662.38;;;2.31;89.60
48424;BME280;34232;42.502;26.014;2023-01-01T01:04:56;101660.66;;;2.30;89.77
48424;BME280;34232;42.502;26.014;2023-01-01T01:07:22;101671.00;;;2.33;90.31
48424;BME280;34232;42.502;26.014;2023-01-01T01:09:47;101665.78;;;2.33;90.15
48424;BME280;34232;42.502;26.014;2023-01-01T01:12:13;101664.84;;;2.37;90.52
48424;BME280;34232;42.502;26.014;2023-01-01T01:14:38;101661.28;;;2.41;90.55
48424;BME280;34232;42.502;26.014;2023-01-01T01:17:03;101660.41;;;2.42;90.14
48424;BME280;34232;42.502;26.014;2023-01-01T01:19:29;101660.41;;;2.42;90.07
48424;BME280;34232;42.502;26.014;2023-01-01T01:21:54;101664.66;;;2.44;89.83
48424;BME280;34232;42.502;26.014;2023-01-01T01:24:20;101643.22;;;2.35;88.71
48424;BME280;34232;42.502;26.014;2023-01-01T01:26:45;101656.97;;;2.40;87.91
48424;BME280;34232;42.502;26.014;2023-01-01T01:29:10;101666.56;;;2.38;87.15
48424;BME280;34232;42.502;26.014;2023-01-01T01:31:39;101658.88;;;2.32;87.92
48424;BME280;34232;42.502;26.014;2023-01-01T01:34:05;101661.47;;;2.32;87.98
48424;BME280;34232;42.502;26.014;2023-01-01T01:36:30;101662.31;;;2.34;88.09
48424;BME280;34232;42.502;26.014;2023-01-01T01:38:56;101658.84;;;2.33;87.76
48424;BME280;34232;42.502;26.014;2023-01-01T01:41:23;101646.84;;;2.28;87.43
48424;BME280;34232;42.502;26.014;2023-01-01T01:44:42;101658.88;;;2.32;87.68
48424;BME280;34232;42.502;26.014;2023-01-01T01:46:48;101646.19;;;2.18;88.34
48424;BME280;34232;42.502;26.014;2023-01-01T01:49:16;101655.56;;;2.27;88.48
48424;BME280;34232;42.502;26.014;2023-01-01T01:51:46;101658.94;;;2.29;88.16
48424;BME280;34232;42.502;26.014;2023-01-01T01:54:16;101663.19;;;2.33;87.69
48424;BME280;34232;42.502;26.014;2023-01-01T01:59:09;101653.97;;;2.20;87.44
48424;BME280;34232;42.502;26.014;2023-01-01T02:01:35;101660.13;;;2.14;87.75
48424;BME280;34232;42.502;26.014;2023-01-01T02:04:00;101666.19;;;2.15;87.75
48424;BME280;34232;42.502;26.014;2023-01-01T02:06:28;101652.53;;;2.06;87.55
48424;BME280;34232;42.502;26.014;2023-01-01T02:08:56;101659.38;;;2.10;86.90
48424;BME280;34232;42.502;26.014;2023-01-01T02:11:22;101654.31;;;2.04;86.91
48424;BME280;34232;42.502;26.014;2023-01-01T02:13:48;101657.03;;;1.97;86.99
48424;BME280;34232;42.502;26.014;2023-01-01T02:16:26;101661.50;;;1.92;87.11
48424;BME280;34232;42.502;26.014;2023-01-01T02:27:01;101672.00;;;1.86;88.16
48424;BME280;34232;42.502;26.014;2023-01-01T02:32:10;101663.25;;;1.91;88.58
48424;BME280;34232;42.502;26.014;2023-01-01T02:34:45;101670.25;;;1.86;89.16
48424;BME280;34232;42.502;26.014;2023-01-01T02:37:14;101664.06;;;1.93;89.13
48424;BME280;34232;42.502;26.014;2023-01-01T02:39:46;101651.22;;;1.87;89.08
48424;BME280;34232;42.502;26.014;2023-01-01T02:42:15;101663.09;;;1.97;88.37
48424;BME280;34232;42.502;26.014;2023-01-01T02:44:43;101653.53;;;1.99;87.32
48424;BME280;34232;42.502;26.014;2023-01-01T02:47:15;101656.19;;;1.96;86.50
48424;BME280;34232;42.502;26.014;2023-01-01T02:49:48;101652.91;;;1.88;86.65
48424;BME280;34232;42.502;26.014;2023-01-01T02:57:51;101640.34;;;1.68;88.96
48424;BME280;34232;42.502;26.014;2023-01-01T03:00:19;101645.50;;;1.70;88.70
48424;BME280;34232;42.502;26.014;2023-01-01T03:03:06;101642.78;;;1.76;88.03
48424;BME280;34232;42.502;26.014;2023-01-01T03:06:13;101653.94;;;1.80;87.79
48424;BME280;34232;42.502;26.014;2023-01-01T03:09:22;101654.03;;;1.77;87.21
48424;BME280;34232;42.502;26.014;2023-01-01T03:19:47;101662.84;;;1.68;88.04
48424;BME280;34232;42.502;26.014;2023-01-01T03:22:17;101663.66;;;1.70;88.18
48424;BME280;34232;42.502;26.014;2023-01-01T03:27:17;101661.88;;;1.73;87.45
48424;BME280;34232;42.502;26.014;2023-01-01T03:29:46;101653.19;;;1.76;86.10
48424;BME280;34232;42.502;26.014;2023-01-01T03:32:17;101663.47;;;1.79;85.31
48424;BME280;34232;42.502;26.014;2023-01-01T03:34:56;101655.75;;;1.78;85.29
48424;BME280;34232;42.502;26.014;2023-01-01T03:37:25;101639.47;;;1.68;85.09
48424;BME280;34232;42.502;26.014;2023-01-01T03:39:53;101648.09;;;1.70;84.60
48424;BME280;34232;42.502;26.014;2023-01-01T03:42:33;101641.25;;;1.66;85.06
48424;BME280;34232;42.502;26.014;2023-01-01T03:45:16;101663.66;;;1.70;84.69
48424;BME280;34232;42.502;26.014;2023-01-01T03:47:44;101661.25;;;1.62;84.90
48424;BME280;34232;42.502;26.014;2023-01-01T03:50:11;101644.16;;;1.51;85.35
48424;BME280;34232;42.502;26.014;2023-01-01T03:52:52;101655.25;;;1.59;85.36
48424;BME280;34232;42.502;26.014;2023-01-01T03:55:35;101659.63;;;1.57;85.38
48424;BME280;34232;42.502;26.014;2023-01-01T03:58:08;101656.22;;;1.53;85.32
48424;BME280;34232;42.502;26.014;2023-01-01T04:00:42;101657.13;;;1.51;85.12
48424;BME280;34232;42.502;26.014;2023-01-01T04:03:23;101667.56;;;1.48;85.28
48424;BME280;34232;42.502;26.014;2023-01-01T04:05:50;101665.09;;;1.42;85.87
48424;BME280;34232;42.502;26.014;2023-01-01T04:08:15;101660.78;;;1.40;85.69
48424;BME280;34232;42.502;26.014;2023-01-01T04:10:45;101658.19;;;1.40;86.17
48424;BME280;34232;42.502;26.014;2023-01-01T04:13:12;101671.13;;;1.44;86.58
48424;BME280;34232;42.502;26.014;2023-01-01T04:15:37;101671.03;;;1.47;87.38
48424;BME280;34232;42.502;26.014;2023-01-01T04:18:03;101677.06;;;1.49;87.00
48424;BME280;34232;42.502;26.014;2023-01-01T04:20:29;101678.75;;;1.51;86.80
48424;BME280;34232;42.502;26.014;2023-01-01T04:22:56;101676.97;;;1.53;86.19
48424;BME280;34232;42.502;26.014;2023-01-01T04:25:22;101689.91;;;1.55;85.19
48424;BME280;34232;42.502;26.014;2023-01-01T04:27:47;101694.25;;;1.54;84.40
48424;BME280;34232;42.502;26.014;2023-01-01T04:30:13;101698.53;;;1.57;84.12
48424;BME280;34232;42.502;26.014;2023-01-01T04:32:40;101696.03;;;1.52;83.98
48424;BME280;34232;42.502;26.014;2023-01-01T04:35:06;101695.13;;;1.55;84.12
48424;BME280;34232;42.502;26.014;2023-01-01T04:37:34;101691.63;;;1.56;83.73
48424;BME280;34232;42.502;26.014;2023-01-01T04:40:00;101687.31;;;1.56;82.80
48424;BME280;34232;42.502;26.014;2023-01-01T04:42:25;101689.44;;;1.34;83.31
48424;BME280;34232;42.502;26.014;2023-01-01T04:44:50;101702.25;;;1.44;84.17
48424;BME280;34232;42.502;26.014;2023-01-01T04:47:16;101692.75;;;1.43;83.68
48424;BME280;34232;42.502;26.014;2023-01-01T04:49:41;101700.50;;;1.46;83.37
48424;BME280;34232;42.502;26.014;2023-01-01T04:52:07;101703.09;;;1.46;83.08
48424;BME280;34232;42.502;26.014;2023-01-01T04:54:32;101707.34;;;1.47;82.61
48424;BME280;34232;42.502;26.014;2023-01-01T04:56:58;101705.72;;;1.43;82.24
48424;BME280;34232;42.502;26.014;2023-01-01T04:59:23;101702.31;;;1.40;82.64
48424;BME280;34232;42.502;26.014;2023-01-01T05:01:48;101685.13;;;1.33;83.16
48424;BME280;34232;42.502;26.014;2023-01-01T05:04:15;101703.13;;;1.43;82.86
48424;BME280;34232;42.502;26.014;2023-01-01T05:06:41;101699.72;;;1.39;81.95
48424;BME280;34232;42.502;26.014;2023-01-01T05:09:08;101683.59;;;1.23;81.98
48424;BME280;34232;42.502;26.014;2023-01-01T05:11:34;101705.88;;;1.33;82.59
48424;BME280;34232;42.502;26.014;2023-01-01T05:14:00;101705.88;;;1.33;83.36
48424;BME280;34232;42.502;26.014;2023-01-01T05:16:31;101707.59;;;1.34;83.63
48424;BME280;34232;42.502;26.014;2023-01-01T05:18:57;101714.41;;;1.40;83.18
48424;BME280;34232;42.502;26.014;2023-01-01T05:21:25;101710.97;;;1.39;82.57
48424;BME280;34232;42.502;26.014;2023-01-01T05:23:56;101717.84;;;1.42;81.94
48424;BME280;34232;42.502;26.014;2023-01-01T05:26:24;101717.88;;;1.40;81.78
48424;BME280;34232;42.502;26.014;2023-01-01T05:28:51;101718.72;;;1.41;82.00
48424;BME280;34232;42.502;26.014;2023-01-01T05:31:19;101714.47;;;1.37;82.23
48424;BME280;34232;42.502;26.014;2023-01-01T05:33:45;101717.00;;;1.40;81.88
48424;BME280;34232;42.502;26.014;2023-01-01T05:36:20;101723.00;;;1.44;81.44
48424;BME280;34232;42.502;26.014;2023-01-01T05:38:46;101719.63;;;1.38;81.83
48424;BME280;34232;42.502;26.014;2023-01-01T05:41:13;101731.81;;;1.33;82.27
48424;BME280;34232;42.502;26.014;2023-01-01T05:43:40;101720.84;;;1.18;83.48
48424;BME280;34232;42.502;26.014;2023-01-01T05:46:09;101730.22;;;1.26;83.46
48424;BME280;34232;42.502;26.014;2023-01-01T05:48:35;101716.47;;;1.21;82.74
48424;BME280;34232;42.502;26.014;2023-01-01T05:51:08;101730.97;;;1.31;82.92
48424;BME280;34232;42.502;26.014;2023-01-01T05:53:33;101729.25;;;1.30;82.34
48424;BME280;34232;42.502;26.014;2023-01-01T05:55:59;101728.47;;;1.28;81.73
48424;BME280;34232;42.502;26.014;2023-01-01T05:58:26;101726.75;;;1.27;82.06
48424;BME280;34232;42.502;26.014;2023-01-01T06:00:52;101725.03;;;1.26;82.89
48424;BME280;34232;42.502;26.014;2023-01-01T06:03:18;101725.94;;;1.24;83.65
48424;BME280;34232;42.502;26.014;2023-01-01T06:05:43;101725.91;;;1.25;84.13
48424;BME280;34232;42.502;26.014;2023-01-01T06:08:10;101717.31;;;1.23;84.65
48424;BME280;34232;42.502;26.014;2023-01-01T06:10:36;101730.22;;;1.26;85.11
48424;BME280;34232;42.502;26.014;2023-01-01T06:13:01;101719.06;;;1.21;85.50
48424;BME280;34232;42.502;26.014;2023-01-01T06:15:27;101729.25;;;1.30;85.86
48424;BME280;34232;42.502;26.014;2023-01-01T06:17:53;101731.97;;;1.26;85.94
48424;BME280;34232;42.502;26.014;2023-01-01T06:20:18;101725.00;;;1.29;85.71
48424;BME280;34232;42.502;26.014;2023-01-01T06:22:44;101734.44;;;1.30;85.91
48424;BME280;34232;42.502;26.014;2023-01-01T06:25:10;101733.53;;;1.34;85.58
48424;BME280;34232;42.502;26.014;2023-01-01T06:27:36;101725.78;;;1.31;86.03
48424;BME280;34232;42.502;26.014;2023-01-01T06:30:03;101748.97;;;1.42;86.29
48424;BME280;34232;42.502;26.014;2023-01-01T06:32:29;101728.38;;;1.31;86.32
48424;BME280;34232;42.502;26.014;2023-01-01T06:34:54;101737.00;;;1.33;86.34
48424;BME280;34232;42.502;26.014;2023-01-01T06:37:19;101740.44;;;1.35;86.48
48424;BME280;34232;42.502;26.014;2023-01-01T06:39:45;101745.63;;;1.34;87.10
48424;BME280;34232;42.502;26.014;2023-01-01T06:42:10;101746.47;;;1.36;87.47
48424;BME280;34232;42.502;26.014;2023-01-01T06:44:36;101741.47;;;1.27;87.53
48424;BME280;34232;42.502;26.014;2023-01-01T06:47:01;101733.00;;;1.14;87.78
48424;BME280;34232;42.502;26.014;2023-01-01T06:49:27;101748.34;;;1.28;88.08
48424;BME280;34232;42.502;26.014;2023-01-01T06:51:52;101733.31;;;0.97;89.24
48424;BME280;34232;42.502;26.014;2023-01-01T06:54:18;101742.84;;;0.94;90.19
48424;BME280;34232;42.502;26.014;2023-01-01T06:56:43;101737.69;;;0.94;91.14
48424;BME280;34232;42.502;26.014;2023-01-01T06:59:08;101741.09;;;0.97;91.39
48424;BME280;34232;42.502;26.014;2023-01-01T07:01:36;101716.47;;;0.66;91.78
48424;BME280;34232;42.502;26.014;2023-01-01T07:04:04;101746.41;;;0.87;92.45
48424;BME280;34232;42.502;26.014;2023-01-01T07:06:32;101754.13;;;0.91;92.40
48424;BME280;34232;42.502;26.014;2023-01-01T07:08:57;101759.06;;;1.07;92.01
48424;BME280;34232;42.502;26.014;2023-01-01T07:11:24;101766.53;;;1.26;91.52
48424;BME280;34232;42.502;26.014;2023-01-01T07:13:49;101766.59;;;1.23;91.17
48424;BME280;34232;42.502;26.014;2023-01-01T07:16:15;101750.25;;;1.17;90.73
48424;BME280;34232;42.502;26.014;2023-01-01T07:18:40;101757.88;;;1.27;90.82
48424;BME280;34232;42.502;26.014;2023-01-01T07:21:41;101754.13;;;1.44;90.30
48424;BME280;34232;42.502;26.014;2023-01-01T07:24:05;101761.72;;;1.54;89.98
48424;BME280;34232;42.502;26.014;2023-01-01T07:26:31;101750.72;;;1.42;89.73
48424;BME280;34232;42.502;26.014;2023-01-01T07:28:58;101754.13;;;1.44;89.86
48424;BME280;34232;42.502;26.014;2023-01-01T07:31:23;101763.38;;;1.60;89.45
48424;BME280;34232;42.502;26.014;2023-01-01T07:33:49;101769.25;;;1.68;88.99
48424;BME280;34232;42.502;26.014;2023-01-01T07:36:14;101765.69;;;1.75;87.96
48424;BME280;34232;42.502;26.014;2023-01-01T07:38:39;101761.94;;;1.90;87.79
48424;BME280;34232;42.502;26.014;2023-01-01T07:41:05;101763.72;;;1.86;87.54
48424;BME280;34232;42.502;26.014;2023-01-01T07:43:31;101761.84;;;1.94;87.36
48424;BME280;34232;42.502;26.014;2023-01-01T07:45:57;101757.59;;;1.90;87.42
48424;BME280;34232;42.502;26.014;2023-01-01T07:48:23;101768.56;;;2.04;87.28
48424;BME280;34232;42.502;26.014;2023-01-01T07:50:49;101763.13;;;2.17;87.14
48424;BME280;34232;42.502;26.014;2023-01-01T07:53:14;101765.53;;;2.27;87.32
48424;BME280;34232;42.502;26.014;2023-01-01T07:55:40;101768.72;;;2.40;86.90
48424;BME280;34232;42.502;26.014;2023-01-01T07:58:05;101771.16;;;2.46;87.20
48424;BME280;34232;42.502;26.014;2023-01-01T08:00:31;101742.84;;;2.34;87.11
48424;BME280;34232;42.502;26.014;2023-01-01T08:02:56;101776.91;;;2.60;86.81
48424;BME280;34232;42.502;26.014;2023-01-01T08:05:22;101770.59;;;2.73;86.27
48424;BME280;34232;42.502;26.014;2023-01-01T08:07:49;101775.03;;;2.68;85.83
48424;BME280;34232;42.502;26.014;2023-01-01T08:10:16;101777.41;;;2.77;86.42
48424;BME280;34232;42.502;26.014;2023-01-01T08:12:42;101782.47;;;2.84;86.19
48424;BME280;34232;42.502;26.014;2023-01-01T08:15:08;101785.16;;;2.79;86.70
48424;BME280;34232;42.502;26.014;2023-01-01T08:17:34;101785.84;;;2.89;86.76
48424;BME280;34232;42.502;26.014;2023-01-01T08:20:02;101793.38;;;2.99;86.62
48424;BME280;34232;42.502;26.014;2023-01-01T08:22:28;101792.34;;;3.08;86.19
48424;BME280;34232;42.502;26.014;2023-01-01T08:24:53;101792.22;;;3.11;86.09
48424;BME280;34232;42.502;26.014;2023-01-01T08:27:19;101790.25;;;3.22;85.46
48424;BME280;34232;42.502;26.014;2023-01-01T08:29:44;101786.75;;;3.23;85.96
48424;BME280;34232;42.502;26.014;2023-01-01T08:32:11;101789.09;;;3.34;86.21
48424;BME280;34232;42.502;26.014;2023-01-01T08:34:37;101794.78;;;3.49;85.52
48424;BME280;34232;42.502;26.014;2023-01-01T08:37:02;101794.53;;;3.59;85.01
48424;BME280;34232;42.502;26.014;2023-01-01T08:39:28;101790.88;;;3.66;85.80
48424;BME280;34232;42.502;26.014;2023-01-01T08:41:53;101796.59;;;3.80;85.45
48424;BME280;34232;42.502;26.014;2023-01-01T08:44:19;101790.22;;;3.90;85.17
48424;BME280;34232;42.502;26.014;2023-01-01T08:46:44;101794.94;;;4.08;85.07
48424;BME280;34232;42.502;26.014;2023-01-01T08:49:10;101783.22;;;4.23;84.49
48424;BME280;34232;42.502;26.014;2023-01-01T08:51:35;101782.22;;;4.29;84.85
48424;BME280;34232;42.502;26.014;2023-01-01T08:54:01;101778.69;;;4.30;84.28
48424;BME280;34232;42.502;26.014;2023-01-01T08:56:26;101775.03;;;4.37;84.11
48424;BME280;34232;42.502;26.014;2023-01-01T08:58:52;101773.78;;;4.50;83.87
48424;BME280;34232;42.502;26.014;2023-01-01T09:01:17;101769.72;;;4.69;83.30
48424;BME280;34232;42.502;26.014;2023-01-01T09:03:46;101768.19;;;4.90;81.77
48424;BME280;34232;42.502;26.014;2023-01-01T09:06:11;101769.25;;;5.11;80.86
48424;BME280;34232;42.502;26.014;2023-01-01T09:08:37;101763.53;;;5.26;79.85
48424;BME280;34232;42.502;26.014;2023-01-01T09:11:03;101759.84;;;5.33;78.68
48424;BME280;34232;42.502;26.014;2023-01-01T09:13:32;101753.25;;;5.48;78.48
48424;BME280;34232;42.502;26.014;2023-01-01T09:15:58;101739.53;;;5.41;78.28
48424;BME280;34232;42.502;26.014;2023-01-01T09:18:24;101759.81;;;5.59;78.20
48424;BME280;34232;42.502;26.014;2023-01-01T09:20:49;101758.69;;;5.67;77.95
48424;BME280;34232;42.502;26.014;2023-01-01T09:23:24;101753.03;;;5.79;77.83
48424;BME280;34232;42.502;26.014;2023-01-01T09:25:49;101746.00;;;5.81;77.82
48424;BME280;34232;42.502;26.014;2023-01-01T09:28:14;101751.00;;;5.62;78.47
48424;BME280;34232;42.502;26.014;2023-01-01T09:30:40;101744.28;;;5.55;79.27
48424;BME280;34232;42.502;26.014;2023-01-01T09:33:05;101739.91;;;5.55;79.72
48424;BME280;34232;42.502;26.014;2023-01-01T09:35:31;101727.44;;;5.63;79.63
48424;BME280;34232;42.502;26.014;2023-01-01T09:37:56;101723.50;;;5.77;79.95
48424;BME280;34232;42.502;26.014;2023-01-01T09:43:05;101712.88;;;5.81;80.02
48424;BME280;34232;42.502;26.014;2023-01-01T09:45:41;101721.25;;;5.91;80.38
48424;BME280;34232;42.502;26.014;2023-01-01T09:48:15;101718.78;;;5.86;81.25
48424;BME280;34232;42.502;26.014;2023-01-01T09:50:42;101721.16;;;5.94;81.10
48424;BME280;34232;42.502;26.014;2023-01-01T09:53:14;101721.84;;;5.99;81.81
48424;BME280;34232;42.502;26.014;2023-01-01T09:58:13;101713.66;;;6.08;82.24
48424;BME280;34232;42.502;26.014;2023-01-01T10:00:45;101720.13;;;6.21;82.38
48424;BME280;34232;42.502;26.014;2023-01-01T10:03:32;101704.34;;;6.24;83.09
48424;BME280;34232;42.502;26.014;2023-01-01T10:06:06;101711.81;;;6.33;83.72
48424;BME280;34232;42.502;26.014;2023-01-01T10:11:22;101705.41;;;6.64;83.96
48424;BME280;34232;42.502;26.014;2023-01-01T10:13:50;101703.47;;;6.69;83.40
48424;BME280;34232;42.502;26.014;2023-01-01T10:16:30;101691.50;;;6.63;83.03
48424;BME280;34232;42.502;26.014;2023-01-01T10:19:04;101705.75;;;6.55;84.86
48424;BME280;34232;42.502;26.014;2023-01-01T10:21:35;101696.28;;;6.74;85.44
48424;BME280;34232;42.502;26.014;2023-01-01T10:24:05;101700.44;;;6.80;83.97
48424;BME280;34232;42.502;26.014;2023-01-01T10:26:39;101689.22;;;6.76;86.07
48424;BME280;34232;42.502;26.014;2023-01-01T10:31:40;101682.81;;;6.83;85.11
48424;BME280;34232;42.502;26.014;2023-01-01T10:36:45;101688.94;;;7.04;84.32
48424;BME280;34232;42.502;26.014;2023-01-01T10:39:15;101685.59;;;7.00;85.89
48424;BME280;34232;42.502;26.014;2023-01-01T10:41:42;101683.25;;;7.35;85.44
48424;BME280;34232;42.502;26.014;2023-01-01T10:44:09;101664.25;;;7.50;84.98
48424;BME280;34232;42.502;26.014;2023-01-01T10:46:43;101667.38;;;7.79;83.40
48424;BME280;34232;42.502;26.014;2023-01-01T10:49:12;101660.00;;;7.87;82.56
48424;BME280;34232;42.502;26.014;2023-01-01T10:51:47;101663.63;;;8.03;81.63
48424;BME280;34232;42.502;26.014;2023-01-01T10:54:35;101668.22;;;7.98;81.90
48424;BME280;34232;42.502;26.014;2023-01-01T10:57:19;101664.03;;;8.13;82.02
48424;BME280;34232;42.502;26.014;2023-01-01T10:59:53;101651.75;;;8.33;82.22
48424;BME280;34232;42.502;26.014;2023-01-01T11:02:30;101650.03;;;8.32;80.66
48424;BME280;34232;42.502;26.014;2023-01-01T11:05:13;101647.56;;;8.65;80.26
48424;BME280;34232;42.502;26.014;2023-01-01T11:07:40;101649.97;;;8.70;79.92
48424;BME280;34232;42.502;26.014;2023-01-01T11:10:15;101647.81;;;8.78;78.53
48424;BME280;34232;42.502;26.014;2023-01-01T11:12:42;101642.75;;;8.75;78.43
48424;BME280;34232;42.502;26.014;2023-01-01T11:15:20;101639.94;;;8.95;78.25
48424;BME280;34232;42.502;26.014;2023-01-01T11:17:46;101636.25;;;9.17;78.02
48424;BME280;34232;42.502;26.014;2023-01-01T11:20:19;101640.13;;;9.42;77.46
48424;BME280;34232;42.502;26.014;2023-01-01T11:22:49;101630.44;;;9.60;75.74
48424;BME280;34232;42.502;26.014;2023-01-01T11:25:24;101633.97;;;9.76;76.41
48424;BME280;34232;42.502;26.014;2023-01-01T11:27:52;101604.56;;;9.53;76.01
48424;BME280;34232;42.502;26.014;2023-01-01T11:30:27;101626.50;;;9.69;77.04
48424;BME280;34232;42.502;26.014;2023-01-01T11:32:58;101632.75;;;9.66;78.02
48424;BME280;34232;42.502;26.014;2023-01-01T11:35:27;101625.50;;;9.71;77.79
48424;BME280;34232;42.502;26.014;2023-01-01T11:37:54;101625.50;;;9.71;77.93
48424;BME280;34232;42.502;26.014;2023-01-01T11:40:24;101628.38;;;9.82;77.86
48424;BME280;34232;42.502;26.014;2023-01-01T11:42:55;101627.22;;;9.88;77.61
48424;BME280;34232;42.502;26.014;2023-01-01T11:45:27;101623.81;;;10.02;77.48
48424;BME280;34232;42.502;26.014;2023-01-01T11:47:59;101614.31;;;9.99;77.58
48424;BME280;34232;42.502;26.014;2023-01-01T11:50:31;101611.44;;;10.04;78.26
48424;BME280;34232;42.502;26.014;2023-01-01T11:53:25;101615.41;;;10.11;78.04
48424;BME280;34232;42.502;26.014;2023-01-01T12:01:01;101608.44;;;10.10;78.08
48424;BME280;34232;42.502;26.014;2023-01-01T12:03:37;101597.16;;;10.08;78.17
48424;BME280;34232;42.502;26.014;2023-01-01T12:06:42;101609.22;;;10.12;78.20
48424;BME280;34232;42.502;26.014;2023-01-01T12:09:13;101614.84;;;10.37;77.70
48424;BME280;34232;42.502;26.014;2023-01-01T12:12:18;101621.19;;;10.49;76.49
48424;BME280;34232;42.502;26.014;2023-01-01T12:15:03;101618.03;;;10.58;76.74
48424;BME280;34232;42.502;26.014;2023-01-01T12:20:58;101593.75;;;10.83;74.36
48424;BME280;34232;42.502;26.014;2023-01-01T12:23:24;101589.63;;;10.93;74.19
48424;BME280;34232;42.502;26.014;2023-01-01T12:26:22;101585.16;;;11.09;73.70
48424;BME280;34232;42.502;26.014;2023-01-01T12:31:46;101580.28;;;11.03;73.55
48424;BME280;34232;42.502;26.014;2023-01-01T12:34:19;101587.19;;;10.90;73.71
48424;BME280;34232;42.502;26.014;2023-01-01T12:40:24;101585.88;;;10.83;73.68
48424;BME280;34232;42.502;26.014;2023-01-01T12:43:03;101573.22;;;10.74;73.88
48424;BME280;34232;42.502;26.014;2023-01-01T12:48:58;101581.38;;;10.99;73.89
48424;BME280;34232;42.502;26.014;2023-01-01T12:56:41;101568.50;;;11.23;71.90
48424;BME280;34232;42.502;26.014;2023-01-01T12:59:14;101567.28;;;11.29;71.35
48424;BME280;34232;42.502;26.014;2023-01-01T13:01:42;101562.69;;;11.32;70.90
48424;BME280;34232;42.502;26.014;2023-01-01T13:04:19;101570.09;;;11.40;70.84
48424;BME280;34232;42.502;26.014;2023-01-01T13:06:50;101562.94;;;11.42;69.68
48424;BME280;34232;42.502;26.014;2023-01-01T13:09:21;101576.13;;;11.56;68.94
48424;BME280;34232;42.502;26.014;2023-01-01T13:12:15;101565.03;;;11.65;68.46
48424;BME280;34232;42.502;26.014;2023-01-01T13:14:43;101569.28;;;11.68;68.44
48424;BME280;34232;42.502;26.014;2023-01-01T13:17:29;101567.84;;;11.76;67.94
48424;BME280;34232;42.502;26.014;2023-01-01T13:20:13;101567.84;;;11.76;67.53
48424;BME280;34232;42.502;26.014;2023-01-01T13:22:40;101572.75;;;11.82;67.04
48424;BME280;34232;42.502;26.014;2023-01-01T13:30:46;101570.66;;;11.87;65.28
48424;BME280;34232;42.502;26.014;2023-01-01T13:33:30;101568.34;;;11.83;65.96
48424;BME280;34232;42.502;26.014;2023-01-01T13:41:29;101565.84;;;11.94;66.08
48424;BME280;34232;42.502;26.014;2023-01-01T13:46:34;101557.13;;;11.79;66.43
48424;BME280;34232;42.502;26.014;2023-01-01T14:03:14;101568.19;;;11.70;65.09
48424;BME280;34232;42.502;26.014;2023-01-01T14:06:02;101564.72;;;11.70;65.48
48424;BME280;34232;42.502;26.014;2023-01-01T14:08:35;101560.78;;;11.63;65.87
48424;BME280;34232;42.502;26.014;2023-01-01T14:11:02;101562.47;;;11.64;65.99
48424;BME280;34232;42.502;26.014;2023-01-01T14:13:40;101560.31;;;11.56;66.35
48424;BME280;34232;42.502;26.014;2023-01-01T14:16:07;101566.25;;;11.60;66.21
48424;BME280;34232;42.502;26.014;2023-01-01T14:18:42;101561.25;;;11.55;66.32
48424;BME280;34232;42.502;26.014;2023-01-01T14:21:11;101568.78;;;11.61;66.55
48424;BME280;34232;42.502;26.014;2023-01-01T14:23:47;101569.38;;;11.52;66.92
48424;BME280;34232;42.502;26.014;2023-01-01T14:26:18;101564.28;;;11.49;67.02
48424;BME280;34232;42.502;26.014;2023-01-01T14:28:45;101568.91;;;11.45;67.25
48424;BME280;34232;42.502;26.014;2023-01-01T14:31:19;101567.38;;;11.41;67.17
48424;BME280;34232;42.502;26.014;2023-01-01T14:33:46;101578.00;;;11.40;67.27